createdAt,value
2023-01-09T00:00:25.953Z,45.70
2023-01-09T00:02:52.986Z,34.60
2023-01-09T00:05:20.105Z,24.50
2023-01-09T00:07:46.862Z,39.90
2023-01-09T00:10:14.395Z,30.00
2023-01-09T00:12:41.350Z,32.30
2023-01-09T00:15:09.224Z,38.30
2023-01-09T00:17:36.064Z,33.60
2023-01-09T00:20:03.199Z,27.90
2023-01-09T00:22:30.963Z,31.50
2023-01-09T00:24:57.742Z,28.80
2023-01-09T00:27:24.525Z,32.60
2023-01-09T00:29:51.359Z,30.90
2023-01-09T00:32:20.428Z,22.80
2023-01-09T00:37:14.081Z,27.10
2023-01-09T00:39:41.609Z,27.40
2023-01-09T00:42:14.195Z,30.20
2023-01-09T00:44:46.864Z,36.50
2023-01-09T00:47:17.538Z,32.20
2023-01-09T00:49:44.313Z,35.10
2023-01-09T00:52:11.734Z,26.70
2023-01-09T00:54:39.279Z,30.80
2023-01-09T00:57:06.533Z,28.30
2023-01-09T00:59:33.436Z,30.20
2023-01-09T01:02:00.439Z,31.80
2023-01-09T01:04:46.154Z,35.90
2023-01-09T01:07:31.936Z,42.10
2023-01-09T01:09:58.681Z,46.30
2023-01-09T01:12:25.548Z,43.70
2023-01-09T01:14:52.443Z,41.30
2023-01-09T01:17:19.560Z,43.60
2023-01-09T01:19:46.330Z,52.00
2023-01-09T01:22:13.155Z,43.50
2023-01-09T01:24:39.995Z,32.50
2023-01-09T01:27:06.851Z,53.40
2023-01-09T01:29:33.737Z,52.10
2023-01-09T01:32:00.546Z,55.90
2023-01-09T01:34:28.757Z,59.70
2023-01-09T01:36:55.613Z,46.60
2023-01-09T01:39:22.440Z,36.40
2023-01-09T01:41:49.330Z,33.40
2023-01-09T01:44:54.039Z,44.70
2023-01-09T01:47:20.877Z,30.50
2023-01-09T01:49:47.844Z,34.40
2023-01-09T01:52:14.622Z,30.90
2023-01-09T01:54:41.463Z,29.40
2023-01-09T01:57:08.231Z,37.30
2023-01-09T01:59:37.653Z,39.90
2023-01-09T02:02:04.954Z,51.60
2023-01-09T02:04:34.020Z,34.80
2023-01-09T02:07:01.886Z,35.30
2023-01-09T02:09:28.756Z,28.80
2023-01-09T02:11:57.178Z,37.20
2023-01-09T02:14:26.475Z,37.20
2023-01-09T02:17:15.232Z,40.50
2023-01-09T02:20:23.952Z,43.90
2023-01-09T02:25:57.781Z,67.40
2023-01-09T02:29:00.298Z,59.90
2023-01-09T02:31:36.330Z,59.20
2023-01-09T02:34:12.513Z,63.50
2023-01-09T02:37:01.022Z,62.30
2023-01-09T02:39:43.504Z,44.30
2023-01-09T02:42:16.215Z,43.40
2023-01-09T02:44:44.649Z,35.00
2023-01-09T02:47:17.641Z,25.80
2023-01-09T02:49:53.263Z,31.10
2023-01-09T02:52:29.381Z,37.20
2023-01-09T02:55:12.780Z,33.80
2023-01-09T02:58:09.158Z,32.70
2023-01-09T03:00:49.493Z,41.70
2023-01-09T03:03:37.181Z,31.90
2023-01-09T03:06:29.727Z,44.90
2023-01-09T03:09:00.465Z,34.90
2023-01-09T03:11:28.986Z,33.60
2023-01-09T03:13:57.473Z,42.20
2023-01-09T03:16:27.078Z,44.60
2023-01-09T03:18:53.844Z,42.80
2023-01-09T03:21:20.715Z,51.60
2023-01-09T03:23:53.677Z,65.50
2023-01-09T03:26:20.469Z,39.50
2023-01-09T03:28:47.458Z,53.20
2023-01-09T03:31:14.503Z,44.60
2023-01-09T03:33:41.645Z,33.90
2023-01-09T03:36:09.349Z,50.60
2023-01-09T03:38:36.191Z,53.50
2023-01-09T03:41:03.037Z,39.40
2023-01-09T03:43:29.804Z,56.60
2023-01-09T03:45:56.683Z,41.20
2023-01-09T03:48:23.664Z,29.00
2023-01-09T03:50:54.380Z,39.80
2023-01-09T03:53:22.101Z,55.70
2023-01-09T03:55:51.159Z,44.00
2023-01-09T04:00:49.088Z,42.40
2023-01-09T04:03:16.774Z,36.80
2023-01-09T04:05:44.366Z,29.30
2023-01-09T04:08:11.136Z,29.20
2023-01-09T04:10:37.879Z,28.70
2023-01-09T04:13:04.620Z,37.90
2023-01-09T04:15:31.431Z,39.50
2023-01-09T04:17:58.196Z,32.00
2023-01-09T04:20:24.983Z,28.50
2023-01-09T04:22:51.836Z,19.60
2023-01-09T04:25:18.640Z,38.90
2023-01-09T04:27:45.471Z,25.90
2023-01-09T04:30:12.894Z,24.20
2023-01-09T04:32:39.778Z,28.70
2023-01-09T04:35:07.569Z,28.70
2023-01-09T04:37:36.781Z,31.60
2023-01-09T04:40:12.145Z,23.40
2023-01-09T04:42:39.513Z,45.60
2023-01-09T04:45:07.031Z,41.80
2023-01-09T04:47:33.896Z,57.80
2023-01-09T04:50:01.059Z,36.70
2023-01-09T04:52:27.982Z,28.30
2023-01-09T04:54:54.838Z,26.40
2023-01-09T04:57:21.611Z,32.00
2023-01-09T04:59:48.428Z,27.70
2023-01-09T05:02:15.433Z,32.70
2023-01-09T05:04:42.411Z,24.90
2023-01-09T05:07:09.229Z,32.20
2023-01-09T05:09:36.184Z,33.00
2023-01-09T05:12:03.154Z,24.40
2023-01-09T05:14:30.186Z,27.20
2023-01-09T05:16:56.974Z,27.40
2023-01-09T05:19:23.743Z,37.90
2023-01-09T05:21:50.618Z,39.10
2023-01-09T05:24:17.547Z,25.10
2023-01-09T05:26:44.395Z,32.00
2023-01-09T05:29:11.272Z,31.90
2023-01-09T05:31:38.081Z,37.70
2023-01-09T05:34:05.004Z,41.40
2023-01-09T05:36:31.838Z,38.70
2023-01-09T05:38:58.616Z,41.00
2023-01-09T05:41:26.358Z,38.40
2023-01-09T05:43:53.308Z,38.90
2023-01-09T05:46:20.367Z,39.30
2023-01-09T05:48:47.165Z,38.00
2023-01-09T05:51:14.051Z,34.70
2023-01-09T05:53:40.927Z,29.70
2023-01-09T05:56:07.839Z,37.70
2023-01-09T05:58:34.919Z,35.10
2023-01-09T06:01:01.797Z,29.60
2023-01-09T06:03:28.630Z,35.00
2023-01-09T06:05:55.369Z,30.60
2023-01-09T06:08:22.248Z,28.10
2023-01-09T06:10:49.100Z,35.40
2023-01-09T06:13:16.005Z,30.60
2023-01-09T06:15:42.868Z,34.30
2023-01-09T06:18:09.835Z,27.90
2023-01-09T06:20:36.547Z,38.10
2023-01-09T06:23:03.351Z,35.50
2023-01-09T06:25:30.123Z,31.90
2023-01-09T06:27:56.962Z,31.10
2023-01-09T06:30:23.807Z,41.80
2023-01-09T06:32:51.505Z,40.80
2023-01-09T06:35:20.705Z,48.50
2023-01-09T06:37:48.332Z,45.30
2023-01-09T06:40:16.010Z,39.50
2023-01-09T06:42:44.909Z,39.80
2023-01-09T06:45:12.531Z,51.90
2023-01-09T06:47:39.739Z,46.60
2023-01-09T06:50:08.221Z,58.50
2023-01-09T06:52:36.190Z,52.70
2023-01-09T06:55:03.063Z,39.60
2023-01-09T06:57:29.888Z,49.70
2023-01-09T06:59:56.708Z,32.70
2023-01-09T07:02:23.599Z,30.10
2023-01-09T07:04:50.605Z,31.90
2023-01-09T07:07:18.465Z,29.40
2023-01-09T07:09:45.432Z,34.10
2023-01-09T07:12:13.074Z,46.40
2023-01-09T07:14:39.869Z,58.10
2023-01-09T07:17:06.801Z,49.10
2023-01-09T07:19:33.515Z,60.40
2023-01-09T07:22:00.256Z,43.90
2023-01-09T07:24:27.027Z,43.70
2023-01-09T07:26:53.957Z,48.60
2023-01-09T07:29:20.806Z,44.90
2023-01-09T07:31:47.916Z,39.00
2023-01-09T07:34:14.787Z,39.40
2023-01-09T07:36:41.525Z,36.40
2023-01-09T07:39:09.292Z,35.10
2023-01-09T07:41:36.202Z,55.40
2023-01-09T07:44:03.058Z,50.10
2023-01-09T07:46:29.834Z,59.60
2023-01-09T07:48:56.725Z,39.90
2023-01-09T07:51:23.517Z,60.40
2023-01-09T07:53:50.369Z,66.90
2023-01-09T07:56:17.209Z,58.00
2023-01-09T07:58:44.057Z,65.70
2023-01-09T08:01:10.965Z,53.50
2023-01-09T08:03:38.831Z,60.20
2023-01-09T08:06:05.957Z,56.00
2023-01-09T08:08:32.810Z,48.40
2023-01-09T08:10:59.566Z,44.80
2023-01-09T08:13:26.492Z,42.50
2023-01-09T08:15:53.588Z,45.60
2023-01-09T08:18:20.531Z,33.20
2023-01-09T08:20:50.595Z,46.80
2023-01-09T08:23:17.392Z,44.20
2023-01-09T08:25:44.257Z,30.80
2023-01-09T08:28:11.227Z,38.40
2023-01-09T08:30:38.498Z,38.30
2023-01-09T08:33:05.402Z,32.60
2023-01-09T08:35:32.369Z,27.70
2023-01-09T08:37:59.211Z,23.40
2023-01-09T08:40:26.097Z,31.90
2023-01-09T08:43:11.836Z,30.60
2023-01-09T08:45:57.428Z,32.10
2023-01-09T08:48:24.263Z,36.80
2023-01-09T08:50:51.309Z,29.90
2023-01-09T08:53:18.258Z,36.80
2023-01-09T08:55:45.097Z,41.80
2023-01-09T08:58:12.050Z,36.00
2023-01-09T09:00:39.415Z,28.70
2023-01-09T09:03:06.225Z,31.80
2023-01-09T09:05:33.288Z,36.50
2023-01-09T09:08:00.223Z,34.70
2023-01-09T09:10:27.976Z,18.90
2023-01-09T09:12:56.170Z,26.20
2023-01-09T09:15:26.746Z,19.30
2023-01-09T09:17:55.497Z,20.60
2023-01-09T09:20:23.450Z,27.60
2023-01-09T09:22:50.636Z,26.30
2023-01-09T09:25:17.891Z,20.80
2023-01-09T09:27:44.757Z,19.50
2023-01-09T09:30:12.594Z,23.90
2023-01-09T09:32:39.612Z,28.40
2023-01-09T09:35:07.000Z,31.70
2023-01-09T09:37:33.757Z,29.70
2023-01-09T09:40:09.779Z,28.50
2023-01-09T09:43:37.484Z,26.80
2023-01-09T09:46:29.463Z,27.80
2023-01-09T09:48:58.156Z,21.00
2023-01-09T09:51:47.582Z,19.00
2023-01-09T09:54:18.474Z,21.20
2023-01-09T09:56:50.649Z,15.60
2023-01-09T09:59:27.039Z,22.50
2023-01-09T10:01:57.865Z,20.80
2023-01-09T10:04:26.417Z,28.80
2023-01-09T10:06:56.844Z,33.40
2023-01-09T10:09:27.312Z,19.40
2023-01-09T12:26:27.844Z,41.90
2023-01-09T12:29:09.912Z,31.00
2023-01-09T12:31:59.792Z,27.40
2023-01-09T12:35:04.338Z,21.60
2023-01-09T12:38:06.297Z,21.00
2023-01-09T12:40:42.700Z,29.00
2023-01-09T12:43:19.737Z,24.50
2023-01-09T12:46:11.445Z,22.80
2023-01-09T12:49:08.720Z,29.70
2023-01-09T12:51:54.277Z,30.10
2023-01-09T12:54:38.977Z,25.20
2023-01-09T12:57:44.819Z,27.40
2023-01-09T13:00:14.656Z,30.20
2023-01-09T13:02:44.094Z,28.90
2023-01-09T13:05:16.102Z,30.60
2023-01-09T13:07:49.183Z,25.00
2023-01-09T13:10:34.855Z,18.50
2023-01-09T13:13:12.793Z,25.30
2023-01-09T13:15:45.296Z,25.30
2023-01-09T16:40:32.228Z,24.60
2023-01-09T16:43:00.332Z,35.60
2023-01-09T16:45:28.676Z,21.00
2023-01-09T16:47:55.706Z,17.60
2023-01-09T16:50:24.077Z,27.00
2023-01-09T16:52:51.557Z,29.80
2023-01-09T16:55:18.375Z,40.20
2023-01-09T16:57:45.225Z,31.70
2023-01-09T17:00:18.944Z,32.10
2023-01-09T17:02:46.165Z,18.80
2023-01-09T17:05:13.323Z,30.70
2023-01-09T17:07:40.117Z,25.10
2023-01-09T17:10:10.380Z,26.00
2023-01-09T17:12:37.334Z,31.10
2023-01-09T17:15:04.457Z,35.10
2023-01-09T17:17:31.425Z,33.20
2023-01-09T17:19:58.506Z,39.30
2023-01-09T17:22:25.381Z,27.80
2023-01-09T17:25:11.046Z,34.80
2023-01-09T17:27:56.719Z,32.10
2023-01-09T17:30:23.643Z,26.70
2023-01-09T17:32:50.585Z,30.90
2023-01-09T17:35:17.555Z,43.30
2023-01-09T17:37:44.456Z,32.00
2023-01-09T17:40:22.372Z,31.90
2023-01-09T17:42:49.162Z,25.00
2023-01-09T17:45:16.151Z,19.30
2023-01-09T17:47:42.921Z,46.40
2023-01-09T17:50:18.169Z,35.80
2023-01-09T17:52:45.488Z,25.70
2023-01-09T17:55:12.334Z,32.40
2023-01-09T17:57:39.275Z,47.60
2023-01-09T18:00:07.142Z,43.40
2023-01-09T18:02:34.101Z,42.70
2023-01-09T18:05:00.943Z,31.80
2023-01-09T18:07:27.726Z,20.90
2023-01-09T18:09:54.540Z,24.00
2023-01-09T18:12:21.571Z,32.40
2023-01-09T18:14:48.319Z,21.50
2023-01-09T18:17:15.104Z,40.80
2023-01-09T18:19:42.392Z,28.70
2023-01-09T18:22:09.324Z,19.30
2023-01-09T18:24:36.275Z,18.60
2023-01-09T18:27:08.449Z,22.80
2023-01-09T18:29:35.250Z,21.40
2023-01-09T18:32:02.307Z,16.90
2023-01-09T18:34:29.131Z,16.40
2023-01-09T18:36:56.078Z,17.50
2023-01-09T18:39:23.148Z,19.60
2023-01-09T18:41:50.010Z,32.20
2023-01-09T18:44:20.144Z,16.40
2023-01-09T18:46:47.152Z,22.10
2023-01-09T18:49:14.026Z,17.60
2023-01-09T18:51:40.846Z,21.80
2023-01-09T18:54:08.403Z,18.40
2023-01-09T18:56:35.769Z,21.60
2023-01-09T18:59:02.557Z,22.60
2023-01-09T19:01:29.926Z,27.00
2023-01-09T19:03:57.449Z,31.50
2023-01-09T19:06:24.375Z,14.10
2023-01-09T22:24:34.517Z,35.70
2023-01-09T22:27:01.458Z,22.30
2023-01-09T22:29:28.423Z,17.20
2023-01-09T22:31:55.256Z,14.60
2023-01-09T22:34:21.980Z,17.00
2023-01-09T22:36:48.899Z,18.40
2023-01-09T22:39:17.288Z,22.70
2023-01-09T22:41:44.210Z,20.20
2023-01-09T22:44:11.514Z,18.70
2023-01-09T22:46:38.878Z,11.80
2023-01-09T22:49:05.809Z,25.70
2023-01-09T22:51:33.877Z,9.80
2023-01-09T22:54:01.047Z,21.30
2023-01-09T22:56:28.092Z,12.50
2023-01-09T22:58:58.395Z,16.10
2023-01-09T23:01:25.262Z,16.70
2023-01-09T23:03:52.125Z,15.90
2023-01-09T23:06:20.454Z,15.90
2023-01-09T23:08:49.459Z,19.60
2023-01-09T23:13:44.285Z,19.70
2023-01-09T23:16:11.053Z,16.40
2023-01-09T23:18:37.898Z,15.40
2023-01-09T23:21:05.079Z,12.80
2023-01-09T23:23:32.214Z,14.50
2023-01-09T23:26:00.833Z,11.60
2023-01-09T23:28:27.895Z,17.60
2023-01-09T23:30:54.861Z,22.70
2023-01-09T23:33:21.648Z,15.50
2023-01-09T23:35:48.558Z,18.60
2023-01-09T23:38:15.647Z,24.20
2023-01-09T23:40:42.627Z,19.70
2023-01-09T23:43:13.359Z,16.80
2023-01-09T23:45:43.828Z,42.60
2023-01-09T23:48:12.685Z,26.90
2023-01-09T23:50:39.621Z,38.80
2023-01-09T23:53:06.428Z,25.70
2023-01-09T23:55:35.562Z,24.30
